sensor_id;sensor_type;location;lat;lon;timestamp;P1;durP1;ratioP1;P2;durP2;ratioP2
19161;SDS011;9713;48.140;11.530;2023-02-14T00:01:05;27.13;;;14.57;;
19161;SDS011;9713;48.140;11.530;2023-02-14T00:04:50;24.37;;;13.97;;
19161;SDS011;9713;48.140;11.530;2023-02-14T00:08:32;27.70;;;15.30;;
19161;SDS011;9713;48.140;11.530;2023-02-14T00:12:17;27.97;;;14.80;;
19161;SDS011;9713;48.140;11.530;2023-02-14T00:16:00;26.50;;;13.87;;
19161;SDS011;9713;48.140;11.530;2023-02-14T00:19:43;25.80;;;14.10;;
19161;SDS011;9713;48.140;11.530;2023-02-14T00:23:26;48.97;;;23.80;;
19161;SDS011;9713;48.140;11.530;2023-02-14T00:27:09;30.90;;;15.90;;
19161;SDS011;9713;48.140;11.530;2023-02-14T00:30:53;26.97;;;15.07;;
19161;SDS011;9713;48.140;11.530;2023-02-14T00:34:39;29.80;;;16.20;;
19161;SDS011;9713;48.140;11.530;2023-02-14T00:38:22;26.60;;;14.67;;
19161;SDS011;9713;48.140;11.530;2023-02-14T00:42:04;32.43;;;15.40;;
19161;SDS011;9713;48.140;11.530;2023-02-14T00:45:47;27.97;;;15.67;;
19161;SDS011;9713;48.140;11.530;2023-02-14T00:49:31;28.57;;;14.57;;
19161;SDS011;9713;48.140;11.530;2023-02-14T00:53:14;27.10;;;15.47;;
19161;SDS011;9713;48.140;11.530;2023-02-14T00:56:59;29.17;;;14.50;;
19161;SDS011;9713;48.140;11.530;2023-02-14T01:00:41;29.70;;;14.97;;
19161;SDS011;9713;48.140;11.530;2023-02-14T01:04:24;26.80;;;14.50;;
19161;SDS011;9713;48.140;11.530;2023-02-14T01:08:10;29.30;;;15.57;;
19161;SDS011;9713;48.140;11.530;2023-02-14T01:11:53;27.97;;;14.70;;
19161;SDS011;9713;48.140;11.530;2023-02-14T01:15:37;26.27;;;13.83;;
19161;SDS011;9713;48.140;11.530;2023-02-14T01:19:20;26.77;;;14.40;;
19161;SDS011;9713;48.140;11.530;2023-02-14T01:23:03;26.23;;;13.83;;
19161;SDS011;9713;48.140;11.530;2023-02-14T01:26:47;24.27;;;14.37;;
19161;SDS011;9713;48.140;11.530;2023-02-14T01:30:30;25.17;;;13.33;;
19161;SDS011;9713;48.140;11.530;2023-02-14T01:34:13;27.73;;;15.27;;
19161;SDS011;9713;48.140;11.530;2023-02-14T01:37:59;26.50;;;14.90;;
19161;SDS011;9713;48.140;11.530;2023-02-14T01:41:42;28.77;;;15.03;;
19161;SDS011;9713;48.140;11.530;2023-02-14T01:45:32;28.70;;;14.83;;
19161;SDS011;9713;48.140;11.530;2023-02-14T01:49:16;30.80;;;16.10;;
19161;SDS011;9713;48.140;11.530;2023-02-14T01:53:04;28.90;;;14.87;;
19161;SDS011;9713;48.140;11.530;2023-02-14T01:56:48;29.73;;;16.07;;
19161;SDS011;9713;48.140;11.530;2023-02-14T02:00:35;27.73;;;15.30;;
19161;SDS011;9713;48.140;11.530;2023-02-14T02:04:37;27.50;;;14.37;;
19161;SDS011;9713;48.140;11.530;2023-02-14T02:08:22;31.43;;;15.40;;
19161;SDS011;9713;48.140;11.530;2023-02-14T02:12:05;27.20;;;15.00;;
19161;SDS011;9713;48.140;11.530;2023-02-14T02:20:15;24.47;;;13.57;;
19161;SDS011;9713;48.140;11.530;2023-02-14T02:24:13;25.70;;;13.10;;
19161;SDS011;9713;48.140;11.530;2023-02-14T02:28:11;24.50;;;13.87;;
19161;SDS011;9713;48.140;11.530;2023-02-14T02:32:13;24.97;;;14.10;;
19161;SDS011;9713;48.140;11.530;2023-02-14T02:36:18;23.70;;;13.57;;
19161;SDS011;9713;48.140;11.530;2023-02-14T02:40:14;24.20;;;14.23;;
19161;SDS011;9713;48.140;11.530;2023-02-14T02:44:09;24.90;;;13.80;;
19161;SDS011;9713;48.140;11.530;2023-02-14T02:47:56;26.03;;;14.30;;
19161;SDS011;9713;48.140;11.530;2023-02-14T02:51:50;24.07;;;13.80;;
19161;SDS011;9713;48.140;11.530;2023-02-14T02:55:52;27.00;;;14.33;;
19161;SDS011;9713;48.140;11.530;2023-02-14T02:59:58;21.87;;;12.37;;
19161;SDS011;9713;48.140;11.530;2023-02-14T03:03:44;24.97;;;13.00;;
19161;SDS011;9713;48.140;11.530;2023-02-14T03:07:48;23.13;;;13.23;;
19161;SDS011;9713;48.140;11.530;2023-02-14T03:11:31;26.33;;;15.03;;
19161;SDS011;9713;48.140;11.530;2023-02-14T03:15:16;30.03;;;14.23;;
19161;SDS011;9713;48.140;11.530;2023-02-14T03:23:39;28.20;;;14.93;;
19161;SDS011;9713;48.140;11.530;2023-02-14T03:27:27;30.43;;;14.97;;
19161;SDS011;9713;48.140;11.530;2023-02-14T03:31:14;27.17;;;15.03;;
19161;SDS011;9713;48.140;11.530;2023-02-14T03:35:06;30.43;;;15.80;;
19161;SDS011;9713;48.140;11.530;2023-02-14T03:38:55;35.23;;;14.73;;
19161;SDS011;9713;48.140;11.530;2023-02-14T03:42:42;28.77;;;15.33;;
19161;SDS011;9713;48.140;11.530;2023-02-14T03:46:29;26.27;;;14.33;;
19161;SDS011;9713;48.140;11.530;2023-02-14T03:53:58;26.17;;;14.83;;
19161;SDS011;9713;48.140;11.530;2023-02-14T03:57:45;24.80;;;13.97;;
19161;SDS011;9713;48.140;11.530;2023-02-14T04:01:32;25.33;;;13.87;;
19161;SDS011;9713;48.140;11.530;2023-02-14T04:05:20;25.60;;;14.40;;
19161;SDS011;9713;48.140;11.530;2023-02-14T04:09:06;25.77;;;13.93;;
19161;SDS011;9713;48.140;11.530;2023-02-14T04:12:49;27.47;;;15.33;;
19161;SDS011;9713;48.140;11.530;2023-02-14T04:16:32;24.27;;;13.47;;
19161;SDS011;9713;48.140;11.530;2023-02-14T04:20:35;24.17;;;12.87;;
19161;SDS011;9713;48.140;11.530;2023-02-14T04:24:19;21.10;;;12.40;;
19161;SDS011;9713;48.140;11.530;2023-02-14T04:28:01;21.37;;;12.60;;
19161;SDS011;9713;48.140;11.530;2023-02-14T04:31:44;23.13;;;12.83;;
19161;SDS011;9713;48.140;11.530;2023-02-14T04:35:27;21.40;;;12.10;;
19161;SDS011;9713;48.140;11.530;2023-02-14T04:39:10;23.03;;;13.07;;
19161;SDS011;9713;48.140;11.530;2023-02-14T04:42:54;22.03;;;12.67;;
19161;SDS011;9713;48.140;11.530;2023-02-14T04:46:37;23.10;;;13.50;;
19161;SDS011;9713;48.140;11.530;2023-02-14T04:50:20;22.67;;;13.03;;
19161;SDS011;9713;48.140;11.530;2023-02-14T04:54:03;22.37;;;12.70;;
19161;SDS011;9713;48.140;11.530;2023-02-14T04:57:46;28.53;;;13.03;;
19161;SDS011;9713;48.140;11.530;2023-02-14T05:01:30;26.03;;;13.37;;
19161;SDS011;9713;48.140;11.530;2023-02-14T05:05:13;29.40;;;13.47;;
19161;SDS011;9713;48.140;11.530;2023-02-14T05:08:55;25.17;;;13.50;;
19161;SDS011;9713;48.140;11.530;2023-02-14T05:12:38;21.77;;;12.30;;
19161;SDS011;9713;48.140;11.530;2023-02-14T05:16:21;23.53;;;12.67;;
19161;SDS011;9713;48.140;11.530;2023-02-14T05:20:06;25.10;;;12.73;;
19161;SDS011;9713;48.140;11.530;2023-02-14T05:23:49;33.77;;;13.17;;
19161;SDS011;9713;48.140;11.530;2023-02-14T05:27:32;22.30;;;12.13;;
19161;SDS011;9713;48.140;11.530;2023-02-14T05:31:14;24.37;;;12.90;;
19161;SDS011;9713;48.140;11.530;2023-02-14T05:34:57;27.27;;;12.70;;
19161;SDS011;9713;48.140;11.530;2023-02-14T05:38:42;24.63;;;12.67;;
19161;SDS011;9713;48.140;11.530;2023-02-14T05:42:25;23.50;;;12.83;;
19161;SDS011;9713;48.140;11.530;2023-02-14T05:46:08;23.27;;;12.80;;
19161;SDS011;9713;48.140;11.530;2023-02-14T05:49:51;21.43;;;11.73;;
19161;SDS011;9713;48.140;11.530;2023-02-14T05:53:35;23.73;;;13.07;;
19161;SDS011;9713;48.140;11.530;2023-02-14T05:57:19;23.97;;;12.47;;
19161;SDS011;9713;48.140;11.530;2023-02-14T06:01:03;22.43;;;12.30;;
19161;SDS011;9713;48.140;11.530;2023-02-14T06:04:49;21.83;;;12.47;;
19161;SDS011;9713;48.140;11.530;2023-02-14T06:08:32;26.83;;;12.07;;
19161;SDS011;9713;48.140;11.530;2023-02-14T06:12:15;20.90;;;10.77;;
19161;SDS011;9713;48.140;11.530;2023-02-14T06:15:59;18.53;;;10.60;;
19161;SDS011;9713;48.140;11.530;2023-02-14T06:19:41;21.13;;;11.50;;
19161;SDS011;9713;48.140;11.530;2023-02-14T06:23:24;18.70;;;10.80;;
19161;SDS011;9713;48.140;11.530;2023-02-14T06:27:07;21.97;;;11.10;;
19161;SDS011;9713;48.140;11.530;2023-02-14T06:30:50;19.83;;;10.70;;
19161;SDS011;9713;48.140;11.530;2023-02-14T06:34:34;18.67;;;10.50;;
19161;SDS011;9713;48.140;11.530;2023-02-14T06:38:17;18.20;;;10.73;;
19161;SDS011;9713;48.140;11.530;2023-02-14T06:41:59;21.53;;;11.63;;
19161;SDS011;9713;48.140;11.530;2023-02-14T06:45:42;22.60;;;11.73;;
19161;SDS011;9713;48.140;11.530;2023-02-14T06:49:25;19.77;;;11.27;;
19161;SDS011;9713;48.140;11.530;2023-02-14T06:53:09;21.40;;;11.83;;
19161;SDS011;9713;48.140;11.530;2023-02-14T06:56:52;22.90;;;12.23;;
19161;SDS011;9713;48.140;11.530;2023-02-14T07:00:34;27.63;;;13.03;;
19161;SDS011;9713;48.140;11.530;2023-02-14T07:04:20;23.20;;;12.80;;
19161;SDS011;9713;48.140;11.530;2023-02-14T07:08:03;23.63;;;12.57;;
19161;SDS011;9713;48.140;11.530;2023-02-14T07:11:49;25.50;;;12.57;;
19161;SDS011;9713;48.140;11.530;2023-02-14T07:15:32;27.63;;;14.03;;
19161;SDS011;9713;48.140;11.530;2023-02-14T07:19:15;27.77;;;14.10;;
19161;SDS011;9713;48.140;11.530;2023-02-14T07:22:59;30.30;;;14.47;;
19161;SDS011;9713;48.140;11.530;2023-02-14T07:26:44;29.63;;;14.97;;
19161;SDS011;9713;48.140;11.530;2023-02-14T07:30:28;30.00;;;15.07;;
19161;SDS011;9713;48.140;11.530;2023-02-14T07:34:11;24.50;;;12.73;;
19161;SDS011;9713;48.140;11.530;2023-02-14T07:37:54;23.23;;;12.40;;
19161;SDS011;9713;48.140;11.530;2023-02-14T07:41:36;22.90;;;12.80;;
19161;SDS011;9713;48.140;11.530;2023-02-14T07:45:19;25.50;;;14.20;;
19161;SDS011;9713;48.140;11.530;2023-02-14T07:49:04;25.13;;;13.57;;
19161;SDS011;9713;48.140;11.530;2023-02-14T07:52:46;22.43;;;12.87;;
19161;SDS011;9713;48.140;11.530;2023-02-14T07:56:29;24.63;;;12.43;;
19161;SDS011;9713;48.140;11.530;2023-02-14T08:00:12;22.73;;;12.00;;
19161;SDS011;9713;48.140;11.530;2023-02-14T08:03:55;22.07;;;12.00;;
19161;SDS011;9713;48.140;11.530;2023-02-14T08:07:40;23.03;;;12.33;;
19161;SDS011;9713;48.140;11.530;2023-02-14T08:11:23;20.97;;;11.57;;
19161;SDS011;9713;48.140;11.530;2023-02-14T08:15:23;22.60;;;12.43;;
19161;SDS011;9713;48.140;11.530;2023-02-14T08:19:23;25.27;;;12.50;;
19161;SDS011;9713;48.140;11.530;2023-02-14T08:23:07;24.57;;;13.10;;
19161;SDS011;9713;48.140;11.530;2023-02-14T08:26:50;24.77;;;14.33;;
19161;SDS011;9713;48.140;11.530;2023-02-14T08:30:36;25.57;;;13.33;;
19161;SDS011;9713;48.140;11.530;2023-02-14T08:34:19;24.50;;;12.93;;
19161;SDS011;9713;48.140;11.530;2023-02-14T08:38:02;26.27;;;13.77;;
19161;SDS011;9713;48.140;11.530;2023-02-14T08:41:47;25.90;;;14.27;;
19161;SDS011;9713;48.140;11.530;2023-02-14T08:45:30;25.90;;;13.07;;
19161;SDS011;9713;48.140;11.530;2023-02-14T08:49:13;26.13;;;14.20;;
19161;SDS011;9713;48.140;11.530;2023-02-14T08:52:56;24.77;;;13.63;;
19161;SDS011;9713;48.140;11.530;2023-02-14T08:56:40;30.30;;;13.73;;
19161;SDS011;9713;48.140;11.530;2023-02-14T09:00:24;25.70;;;13.47;;
19161;SDS011;9713;48.140;11.530;2023-02-14T09:04:07;26.83;;;14.80;;
19161;SDS011;9713;48.140;11.530;2023-02-14T09:07:51;27.57;;;15.43;;
19161;SDS011;9713;48.140;11.530;2023-02-14T09:11:36;28.17;;;14.50;;
19161;SDS011;9713;48.140;11.530;2023-02-14T09:15:18;31.93;;;17.00;;
19161;SDS011;9713;48.140;11.530;2023-02-14T09:19:03;27.70;;;13.70;;
19161;SDS011;9713;48.140;11.530;2023-02-14T09:22:47;26.53;;;13.50;;
19161;SDS011;9713;48.140;11.530;2023-02-14T09:26:30;25.77;;;13.27;;
19161;SDS011;9713;48.140;11.530;2023-02-14T09:30:13;26.17;;;13.70;;
19161;SDS011;9713;48.140;11.530;2023-02-14T09:33:57;25.70;;;14.40;;
19161;SDS011;9713;48.140;11.530;2023-02-14T09:37:43;26.53;;;14.03;;
19161;SDS011;9713;48.140;11.530;2023-02-14T09:41:57;24.47;;;12.60;;
19161;SDS011;9713;48.140;11.530;2023-02-14T09:45:50;29.27;;;14.67;;
19161;SDS011;9713;48.140;11.530;2023-02-14T09:49:35;22.53;;;13.37;;
19161;SDS011;9713;48.140;11.530;2023-02-14T09:53:23;29.40;;;14.17;;
19161;SDS011;9713;48.140;11.530;2023-02-14T09:57:09;29.73;;;14.80;;
19161;SDS011;9713;48.140;11.530;2023-02-14T10:00:55;35.00;;;15.07;;
19161;SDS011;9713;48.140;11.530;2023-02-14T10:04:42;29.27;;;14.40;;
19161;SDS011;9713;48.140;11.530;2023-02-14T10:08:35;33.10;;;15.90;;
19161;SDS011;9713;48.140;11.530;2023-02-14T10:12:28;31.07;;;14.57;;
19161;SDS011;9713;48.140;11.530;2023-02-14T10:16:15;27.63;;;14.93;;
19161;SDS011;9713;48.140;11.530;2023-02-14T10:20:02;31.47;;;15.53;;
19161;SDS011;9713;48.140;11.530;2023-02-14T10:23:49;30.90;;;15.37;;
19161;SDS011;9713;48.140;11.530;2023-02-14T10:27:36;27.90;;;15.70;;
19161;SDS011;9713;48.140;11.530;2023-02-14T10:31:23;31.43;;;15.93;;
19161;SDS011;9713;48.140;11.530;2023-02-14T10:35:10;32.30;;;15.67;;
19161;SDS011;9713;48.140;11.530;2023-02-14T10:39:03;32.80;;;16.17;;
19161;SDS011;9713;48.140;11.530;2023-02-14T10:42:52;28.50;;;15.77;;
19161;SDS011;9713;48.140;11.530;2023-02-14T10:46:39;31.20;;;16.70;;
19161;SDS011;9713;48.140;11.530;2023-02-14T10:50:26;29.77;;;16.27;;
19161;SDS011;9713;48.140;11.530;2023-02-14T10:54:17;33.57;;;16.93;;
19161;SDS011;9713;48.140;11.530;2023-02-14T10:58:03;32.23;;;16.37;;
19161;SDS011;9713;48.140;11.530;2023-02-14T11:01:48;38.93;;;18.30;;
19161;SDS011;9713;48.140;11.530;2023-02-14T11:05:33;35.17;;;18.00;;
19161;SDS011;9713;48.140;11.530;2023-02-14T11:09:19;42.20;;;17.50;;
19161;SDS011;9713;48.140;11.530;2023-02-14T11:13:02;36.53;;;16.53;;
19161;SDS011;9713;48.140;11.530;2023-02-14T11:16:44;43.37;;;19.97;;
19161;SDS011;9713;48.140;11.530;2023-02-14T11:20:31;38.17;;;18.73;;
19161;SDS011;9713;48.140;11.530;2023-02-14T11:24:21;35.17;;;19.07;;
19161;SDS011;9713;48.140;11.530;2023-02-14T11:28:11;32.90;;;18.53;;
19161;SDS011;9713;48.140;11.530;2023-02-14T11:31:56;36.53;;;19.17;;
19161;SDS011;9713;48.140;11.530;2023-02-14T11:35:48;37.40;;;18.43;;
19161;SDS011;9713;48.140;11.530;2023-02-14T11:39:33;33.27;;;18.40;;
19161;SDS011;9713;48.140;11.530;2023-02-14T11:43:18;39.57;;;19.80;;
19161;SDS011;9713;48.140;11.530;2023-02-14T11:47:15;38.17;;;20.03;;
19161;SDS011;9713;48.140;11.530;2023-02-14T11:51:01;41.40;;;20.93;;
19161;SDS011;9713;48.140;11.530;2023-02-14T11:54:46;37.20;;;18.87;;
19161;SDS011;9713;48.140;11.530;2023-02-14T11:58:31;38.97;;;19.97;;
19161;SDS011;9713;48.140;11.530;2023-02-14T12:02:29;39.47;;;19.27;;
19161;SDS011;9713;48.140;11.530;2023-02-14T12:06:20;41.87;;;19.40;;
19161;SDS011;9713;48.140;11.530;2023-02-14T12:14:19;38.60;;;19.43;;
19161;SDS011;9713;48.140;11.530;2023-02-14T12:18:19;39.13;;;20.23;;
19161;SDS011;9713;48.140;11.530;2023-02-14T12:22:20;39.73;;;20.37;;
19161;SDS011;9713;48.140;11.530;2023-02-14T12:26:08;42.03;;;19.33;;
19161;SDS011;9713;48.140;11.530;2023-02-14T12:29:58;40.17;;;19.90;;
19161;SDS011;9713;48.140;11.530;2023-02-14T12:33:45;38.07;;;18.73;;
19161;SDS011;9713;48.140;11.530;2023-02-14T12:37:34;36.37;;;19.27;;
19161;SDS011;9713;48.140;11.530;2023-02-14T12:41:26;35.73;;;19.10;;
19161;SDS011;9713;48.140;11.530;2023-02-14T12:45:18;34.63;;;18.73;;
19161;SDS011;9713;48.140;11.530;2023-02-14T12:49:12;39.43;;;19.40;;
19161;SDS011;9713;48.140;11.530;2023-02-14T12:53:13;34.57;;;18.47;;
19161;SDS011;9713;48.140;11.530;2023-02-14T12:57:10;33.23;;;18.33;;
19161;SDS011;9713;48.140;11.530;2023-02-14T13:01:04;30.20;;;18.20;;
19161;SDS011;9713;48.140;11.530;2023-02-14T13:05:11;36.70;;;18.77;;
19161;SDS011;9713;48.140;11.530;2023-02-14T13:09:16;35.57;;;18.47;;
19161;SDS011;9713;48.140;11.530;2023-02-14T13:13:10;36.90;;;18.70;;
19161;SDS011;9713;48.140;11.530;2023-02-14T13:16:59;32.63;;;17.17;;
19161;SDS011;9713;48.140;11.530;2023-02-14T13:20:48;29.30;;;18.30;;
19161;SDS011;9713;48.140;11.530;2023-02-14T13:24:33;28.80;;;17.40;;
19161;SDS011;9713;48.140;11.530;2023-02-14T13:28:23;29.50;;;17.20;;
19161;SDS011;9713;48.140;11.530;2023-02-14T13:32:08;29.67;;;16.87;;
19161;SDS011;9713;48.140;11.530;2023-02-14T13:35:54;31.83;;;16.70;;
19161;SDS011;9713;48.140;11.530;2023-02-14T13:39:39;29.83;;;17.00;;
19161;SDS011;9713;48.140;11.530;2023-02-14T13:47:36;23.53;;;14.77;;
19161;SDS011;9713;48.140;11.530;2023-02-14T13:51:19;25.03;;;15.17;;
19161;SDS011;9713;48.140;11.530;2023-02-14T13:55:02;30.27;;;15.93;;
19161;SDS011;9713;48.140;11.530;2023-02-14T13:58:48;28.87;;;15.27;;
19161;SDS011;9713;48.140;11.530;2023-02-14T14:02:39;27.70;;;15.30;;
19161;SDS011;9713;48.140;11.530;2023-02-14T14:06:25;24.93;;;14.63;;
19161;SDS011;9713;48.140;11.530;2023-02-14T14:10:09;26.73;;;14.93;;
19161;SDS011;9713;48.140;11.530;2023-02-14T14:13:59;23.37;;;14.80;;
19161;SDS011;9713;48.140;11.530;2023-02-14T14:17:45;30.30;;;15.77;;
19161;SDS011;9713;48.140;11.530;2023-02-14T14:21:31;25.57;;;14.97;;
19161;SDS011;9713;48.140;11.530;2023-02-14T14:25:27;20.83;;;13.70;;
19161;SDS011;9713;48.140;11.530;2023-02-14T14:29:17;26.63;;;15.33;;
19161;SDS011;9713;48.140;11.530;2023-02-14T14:33:14;22.60;;;14.23;;
19161;SDS011;9713;48.140;11.530;2023-02-14T14:37:02;27.27;;;15.57;;
19161;SDS011;9713;48.140;11.530;2023-02-14T14:40:46;25.80;;;14.47;;
19161;SDS011;9713;48.140;11.530;2023-02-14T14:44:32;22.33;;;14.37;;
19161;SDS011;9713;48.140;11.530;2023-02-14T14:48:17;27.43;;;14.83;;
19161;SDS011;9713;48.140;11.530;2023-02-14T14:52:03;19.93;;;13.97;;
19161;SDS011;9713;48.140;11.530;2023-02-14T14:55:47;29.13;;;14.30;;
19161;SDS011;9713;48.140;11.530;2023-02-14T14:59:34;27.40;;;14.73;;
19161;SDS011;9713;48.140;11.530;2023-02-14T15:03:20;30.43;;;15.53;;
19161;SDS011;9713;48.140;11.530;2023-02-14T15:07:16;24.23;;;14.57;;
19161;SDS011;9713;48.140;11.530;2023-02-14T15:11:00;25.20;;;15.80;;
19161;SDS011;9713;48.140;11.530;2023-02-14T15:14:50;30.10;;;15.07;;
19161;SDS011;9713;48.140;11.530;2023-02-14T15:18:35;24.27;;;13.87;;
19161;SDS011;9713;48.140;11.530;2023-02-14T15:22:18;22.70;;;14.40;;
19161;SDS011;9713;48.140;11.530;2023-02-14T15:26:02;24.50;;;14.33;;
19161;SDS011;9713;48.140;11.530;2023-02-14T15:29:54;25.83;;;14.57;;
19161;SDS011;9713;48.140;11.530;2023-02-14T15:33:38;30.97;;;15.50;;
19161;SDS011;9713;48.140;11.530;2023-02-14T15:37:21;26.43;;;15.83;;
19161;SDS011;9713;48.140;11.530;2023-02-14T15:41:08;28.30;;;14.80;;
19161;SDS011;9713;48.140;11.530;2023-02-14T15:49:04;24.60;;;14.47;;
19161;SDS011;9713;48.140;11.530;2023-02-14T15:52:49;26.20;;;14.77;;
19161;SDS011;9713;48.140;11.530;2023-02-14T15:56:34;26.13;;;15.07;;
19161;SDS011;9713;48.140;11.530;2023-02-14T16:00:20;25.33;;;14.53;;
19161;SDS011;9713;48.140;11.530;2023-02-14T16:04:04;26.17;;;15.63;;
19161;SDS011;9713;48.140;11.530;2023-02-14T16:07:55;27.70;;;14.37;;
19161;SDS011;9713;48.140;11.530;2023-02-14T16:11:40;26.90;;;15.00;;
19161;SDS011;9713;48.140;11.530;2023-02-14T16:15:24;26.23;;;14.03;;
19161;SDS011;9713;48.140;11.530;2023-02-14T16:19:09;30.17;;;16.20;;
19161;SDS011;9713;48.140;11.530;2023-02-14T16:23:13;32.53;;;15.93;;
19161;SDS011;9713;48.140;11.530;2023-02-14T16:26:57;26.00;;;15.77;;
19161;SDS011;9713;48.140;11.530;2023-02-14T16:30:52;27.10;;;14.53;;
19161;SDS011;9713;48.140;11.530;2023-02-14T16:34:36;26.87;;;15.13;;
19161;SDS011;9713;48.140;11.530;2023-02-14T16:38:19;29.40;;;15.83;;
19161;SDS011;9713;48.140;11.530;2023-02-14T16:42:03;25.57;;;14.03;;
19161;SDS011;9713;48.140;11.530;2023-02-14T16:45:47;23.03;;;13.70;;
19161;SDS011;9713;48.140;11.530;2023-02-14T16:49:30;30.53;;;16.40;;
19161;SDS011;9713;48.140;11.530;2023-02-14T16:53:17;37.07;;;16.87;;
19161;SDS011;9713;48.140;11.530;2023-02-14T16:57:05;33.67;;;16.07;;
19161;SDS011;9713;48.140;11.530;2023-02-14T17:00:52;30.60;;;14.60;;
19161;SDS011;9713;48.140;11.530;2023-02-14T17:04:39;24.57;;;13.43;;
19161;SDS011;9713;48.140;11.530;2023-02-14T17:08:22;28.73;;;15.73;;
19161;SDS011;9713;48.140;11.530;2023-02-14T17:12:06;34.30;;;17.20;;
19161;SDS011;9713;48.140;11.530;2023-02-14T17:15:54;32.63;;;16.57;;
19161;SDS011;9713;48.140;11.530;2023-02-14T17:19:37;29.60;;;15.93;;
19161;SDS011;9713;48.140;11.530;2023-02-14T17:23:20;30.30;;;15.17;;
19161;SDS011;9713;48.140;11.530;2023-02-14T17:27:04;29.37;;;16.10;;
19161;SDS011;9713;48.140;11.530;2023-02-14T17:30:47;35.30;;;16.43;;
19161;SDS011;9713;48.140;11.530;2023-02-14T17:34:31;34.20;;;16.73;;
19161;SDS011;9713;48.140;11.530;2023-02-14T17:38:15;32.17;;;16.33;;
19161;SDS011;9713;48.140;11.530;2023-02-14T17:41:58;30.63;;;16.20;;
19161;SDS011;9713;48.140;11.530;2023-02-14T17:45:41;30.70;;;16.07;;
19161;SDS011;9713;48.140;11.530;2023-02-14T17:49:24;39.10;;;17.37;;
19161;SDS011;9713;48.140;11.530;2023-02-14T17:53:08;46.63;;;22.00;;
19161;SDS011;9713;48.140;11.530;2023-02-14T17:56:52;41.00;;;19.97;;
19161;SDS011;9713;48.140;11.530;2023-02-14T18:00:35;34.63;;;18.20;;
19161;SDS011;9713;48.140;11.530;2023-02-14T18:04:18;38.57;;;18.70;;
19161;SDS011;9713;48.140;11.530;2023-02-14T18:08:00;41.33;;;19.80;;
19161;SDS011;9713;48.140;11.530;2023-02-14T18:11:45;39.43;;;18.20;;
19161;SDS011;9713;48.140;11.530;2023-02-14T18:15:27;35.43;;;18.13;;
19161;SDS011;9713;48.140;11.530;2023-02-14T18:19:10;38.57;;;18.70;;
19161;SDS011;9713;48.140;11.530;2023-02-14T18:22:56;39.53;;;18.57;;
19161;SDS011;9713;48.140;11.530;2023-02-14T18:26:39;34.07;;;17.37;;
19161;SDS011;9713;48.140;11.530;2023-02-14T18:30:26;37.07;;;18.47;;
19161;SDS011;9713;48.140;11.530;2023-02-14T18:34:09;33.97;;;17.87;;
19161;SDS011;9713;48.140;11.530;2023-02-14T18:37:52;34.43;;;18.33;;
19161;SDS011;9713;48.140;11.530;2023-02-14T18:41:35;33.87;;;16.90;;
19161;SDS011;9713;48.140;11.530;2023-02-14T18:45:19;32.13;;;16.60;;
19161;SDS011;9713;48.140;11.530;2023-02-14T18:49:04;30.53;;;15.67;;
19161;SDS011;9713;48.140;11.530;2023-02-14T18:52:48;88.30;;;32.53;;
19161;SDS011;9713;48.140;11.530;2023-02-14T18:56:32;68.33;;;25.13;;
19161;SDS011;9713;48.140;11.530;2023-02-14T19:00:17;39.30;;;19.17;;
19161;SDS011;9713;48.140;11.530;2023-02-14T19:04:02;35.60;;;17.87;;
19161;SDS011;9713;48.140;11.530;2023-02-14T19:07:52;41.20;;;18.93;;
19161;SDS011;9713;48.140;11.530;2023-02-14T19:11:35;37.30;;;17.83;;
19161;SDS011;9713;48.140;11.530;2023-02-14T19:15:18;33.63;;;17.30;;
19161;SDS011;9713;48.140;11.530;2023-02-14T19:19:01;36.03;;;17.40;;
19161;SDS011;9713;48.140;11.530;2023-02-14T19:22:45;36.77;;;17.87;;
19161;SDS011;9713;48.140;11.530;2023-02-14T19:26:29;33.90;;;17.30;;
19161;SDS011;9713;48.140;11.530;2023-02-14T19:30:15;34.13;;;17.03;;
19161;SDS011;9713;48.140;11.530;2023-02-14T19:33:58;32.03;;;16.60;;
19161;SDS011;9713;48.140;11.530;2023-02-14T19:37:41;31.17;;;16.20;;
19161;SDS011;9713;48.140;11.530;2023-02-14T19:41:25;33.93;;;16.10;;
19161;SDS011;9713;48.140;11.530;2023-02-14T19:45:10;31.20;;;16.47;;
19161;SDS011;9713;48.140;11.530;2023-02-14T19:48:53;34.50;;;17.80;;
19161;SDS011;9713;48.140;11.530;2023-02-14T19:52:37;37.17;;;17.50;;
19161;SDS011;9713;48.140;11.530;2023-02-14T19:56:20;33.50;;;16.97;;
19161;SDS011;9713;48.140;11.530;2023-02-14T20:00:05;34.80;;;16.80;;
19161;SDS011;9713;48.140;11.530;2023-02-14T20:03:51;32.17;;;16.23;;
19161;SDS011;9713;48.140;11.530;2023-02-14T20:07:34;31.97;;;16.80;;
19161;SDS011;9713;48.140;11.530;2023-02-14T20:11:20;32.23;;;15.93;;
19161;SDS011;9713;48.140;11.530;2023-02-14T20:15:08;29.17;;;15.73;;
19161;SDS011;9713;48.140;11.530;2023-02-14T20:18:54;26.63;;;14.20;;
19161;SDS011;9713;48.140;11.530;2023-02-14T20:22:37;28.03;;;14.93;;
19161;SDS011;9713;48.140;11.530;2023-02-14T20:26:22;33.60;;;15.43;;
19161;SDS011;9713;48.140;11.530;2023-02-14T20:30:06;32.53;;;16.00;;
19161;SDS011;9713;48.140;11.530;2023-02-14T20:33:51;31.00;;;16.03;;
19161;SDS011;9713;48.140;11.530;2023-02-14T20:37:34;27.90;;;15.10;;
19161;SDS011;9713;48.140;11.530;2023-02-14T20:41:17;35.07;;;16.43;;
19161;SDS011;9713;48.140;11.530;2023-02-14T20:45:00;30.97;;;16.33;;
19161;SDS011;9713;48.140;11.530;2023-02-14T20:48:44;28.63;;;16.20;;
19161;SDS011;9713;48.140;11.530;2023-02-14T20:52:26;29.87;;;15.77;;
19161;SDS011;9713;48.140;11.530;2023-02-14T20:56:09;30.77;;;16.03;;
19161;SDS011;9713;48.140;11.530;2023-02-14T20:59:52;26.63;;;14.63;;
19161;SDS011;9713;48.140;11.530;2023-02-14T21:03:35;29.73;;;16.43;;
19161;SDS011;9713;48.140;11.530;2023-02-14T21:07:20;28.43;;;14.97;;
19161;SDS011;9713;48.140;11.530;2023-02-14T21:11:03;31.13;;;15.93;;
19161;SDS011;9713;48.140;11.530;2023-02-14T21:14:46;26.93;;;14.93;;
19161;SDS011;9713;48.140;11.530;2023-02-14T21:18:29;28.07;;;14.50;;
19161;SDS011;9713;48.140;11.530;2023-02-14T21:22:12;31.93;;;15.37;;
19161;SDS011;9713;48.140;11.530;2023-02-14T21:25:58;27.03;;;15.07;;
19161;SDS011;9713;48.140;11.530;2023-02-14T21:29:41;28.00;;;15.30;;
19161;SDS011;9713;48.140;11.530;2023-02-14T21:33:27;33.33;;;16.13;;
19161;SDS011;9713;48.140;11.530;2023-02-14T21:37:11;30.03;;;15.10;;
19161;SDS011;9713;48.140;11.530;2023-02-14T21:40:59;42.27;;;20.20;;
19161;SDS011;9713;48.140;11.530;2023-02-14T21:44:45;28.73;;;14.73;;
19161;SDS011;9713;48.140;11.530;2023-02-14T21:48:45;28.10;;;14.93;;
19161;SDS011;9713;48.140;11.530;2023-02-14T21:52:46;24.30;;;13.80;;
19161;SDS011;9713;48.140;11.530;2023-02-14T21:56:30;27.13;;;14.57;;
19161;SDS011;9713;48.140;11.530;2023-02-14T22:00:13;26.63;;;14.23;;
19161;SDS011;9713;48.140;11.530;2023-02-14T22:03:57;28.83;;;14.40;;
19161;SDS011;9713;48.140;11.530;2023-02-14T22:07:40;23.50;;;13.37;;
19161;SDS011;9713;48.140;11.530;2023-02-14T22:11:23;26.10;;;14.23;;
19161;SDS011;9713;48.140;11.530;2023-02-14T22:15:09;21.80;;;12.97;;
19161;SDS011;9713;48.140;11.530;2023-02-14T22:18:52;26.47;;;13.47;;
19161;SDS011;9713;48.140;11.530;2023-02-14T22:22:34;25.17;;;14.13;;
19161;SDS011;9713;48.140;11.530;2023-02-14T22:26:23;26.80;;;14.57;;